Time;durP1;ratioP1;P1;durP2;ratioP2;P2;SDS_P1;SDS_P2;PMS_P1;PMS_P2;Temp;Humidity;BMP_temperature;BMP_pressure;BME280_temperature;BME280_humidity;BME280_pressure;Samples;Min_cycle;Max_cycle;Signal;HPM_P1;HPM_P2
2022/05/04 00:01:23;;;;;;;;;29.75;26.75;;;;;-143.93;100.00;62969.28;5000431;28;8824;-67
2022/05/04 00:03:48;;;;;;;;;36.50;28.25;;;;;-143.93;100.00;62969.28;5014124;28;8831;-67
2022/05/04 00:06:14;;;;;;;;;32.00;24.50;;;;;-143.93;100.00;62969.28;5072566;27;9611;-67
2022/05/04 00:08:39;;;;;;;;;28.75;24.00;;;;;-143.93;100.00;62969.28;4991555;28;16283;-68
2022/05/04 00:11:06;;;;;;;;;32.00;23.75;;;;;-143.93;100.00;62969.28;5005992;28;8797;-67
2022/05/04 00:13:32;;;;;;;;;30.75;26.50;;;;;-143.93;100.00;62969.28;5003234;28;8813;-67
2022/05/04 00:16:01;;;;;;;;;31.00;25.50;;;;;-143.93;100.00;62969.28;5003892;28;8808;-68
2022/05/04 00:18:29;;;;;;;;;35.00;25.75;;;;;-143.93;100.00;62969.28;5003075;28;8942;-67
2022/05/04 00:20:55;;;;;;;;;33.50;25.50;;;;;-143.93;100.00;62969.28;5007437;28;8793;-67
2022/05/04 00:23:21;;;;;;;;;31.25;26.75;;;;;-143.93;100.00;62969.28;5006292;28;8809;-68
2022/05/04 00:25:46;;;;;;;;;31.75;26.75;;;;;-143.93;100.00;62969.28;5003402;28;8805;-67
2022/05/04 00:28:11;;;;;;;;;33.25;28.00;;;;;-143.93;100.00;62969.28;5003820;28;8822;-67
2022/05/04 00:30:37;;;;;;;;;33.75;25.50;;;;;-143.93;100.00;62969.28;5006382;28;8797;-68
2022/05/04 00:33:02;;;;;;;;;36.00;26.75;;;;;-143.93;100.00;62969.28;4992546;28;8851;-67
2022/05/04 00:35:27;;;;;;;;;30.50;24.75;;;;;-143.93;100.00;62969.28;5006703;28;8837;-68
2022/05/04 00:37:53;;;;;;;;;36.50;26.00;;;;;-143.93;100.00;62969.28;5003871;28;8851;-67
2022/05/04 00:40:18;;;;;;;;;37.75;30.75;;;;;-143.93;100.00;62969.28;4999925;28;9561;-67
2022/05/04 00:42:44;;;;;;;;;35.25;26.50;;;;;-143.93;100.00;62969.28;5003167;28;8844;-67
2022/05/04 00:45:10;;;;;;;;;32.25;30.25;;;;;-143.93;100.00;62969.28;5005226;28;8850;-67
2022/05/04 00:47:35;;;;;;;;;28.00;25.25;;;;;-143.93;100.00;62969.28;5001256;28;8825;-67
2022/05/04 00:50:04;;;;;;;;;35.75;27.75;;;;;-143.93;100.00;62969.28;5005399;28;8805;-68
2022/05/04 00:52:31;;;;;;;;;36.00;29.25;;;;;-143.93;100.00;62969.28;5002371;28;8905;-67
2022/05/04 00:54:56;;;;;;;;;35.50;24.25;;;;;-143.93;100.00;62969.28;5001399;28;8825;-67
2022/05/04 00:58:54;;;;;;;;;35.00;28.25;;;;;-143.93;100.00;62969.28;4999529;28;8855;-68
2022/05/04 01:00:09;;;;;;;;;30.50;25.25;;;;;-143.93;100.00;62969.28;4993537;28;8816;-67
2022/05/04 01:02:36;;;;;;;;;37.50;29.00;;;;;-143.93;100.00;62969.28;4997237;28;9575;-67
2022/05/04 01:05:01;;;;;;;;;41.50;31.75;;;;;-143.93;100.00;62969.28;4996556;28;8970;-67
2022/05/04 01:07:27;;;;;;;;;31.50;27.25;;;;;-143.93;100.00;62969.28;4999754;28;8821;-67
2022/05/04 01:09:53;;;;;;;;;41.00;26.33;;;;;-143.93;100.00;62969.28;5002052;28;26410;-67
2022/05/04 01:12:22;;;;;;;;;35.00;31.00;;;;;-143.93;100.00;62969.28;4995481;28;9056;-66
2022/05/04 01:14:47;;;;;;;;;32.25;27.00;;;;;-143.93;100.00;62969.28;4991198;28;8830;-67
2022/05/04 01:17:12;;;;;;;;;34.25;27.25;;;;;-143.93;100.00;62969.28;4992334;28;8800;-66
2022/05/04 01:19:38;;;;;;;;;29.25;27.00;;;;;-143.93;100.00;62969.28;5003855;28;9002;-67
2022/05/04 01:22:03;;;;;;;;;30.25;25.25;;;;;-143.93;100.00;62969.28;4999698;28;8866;-66
2022/05/04 01:24:29;;;;;;;;;41.50;32.00;;;;;-143.93;100.00;62969.28;4994563;28;8971;-66
2022/05/04 01:26:54;;;;;;;;;39.25;32.00;;;;;-143.93;100.00;62969.28;4990818;28;17805;-66
2022/05/04 01:29:19;;;;;;;;;34.50;29.25;;;;;-143.93;100.00;62969.28;5010452;28;22120;-67
2022/05/04 01:31:44;;;;;;;;;43.50;31.75;;;;;-143.93;100.00;62969.28;5002422;28;8817;-66
2022/05/04 01:34:10;;;;;;;;;32.50;23.50;;;;;-143.93;100.00;62969.28;5004312;28;13902;-66
2022/05/04 01:36:35;;;;;;;;;40.50;30.75;;;;;-143.93;100.00;62969.28;5004261;27;8829;-67
2022/05/04 01:39:00;;;;;;;;;42.00;30.25;;;;;-143.93;100.00;62969.28;4997166;28;8815;-66
2022/05/04 01:44:10;;;;;;;;;32.25;28.25;;;;;-143.93;100.00;62969.28;4994019;28;8812;-67
2022/05/04 01:46:35;;;;;;;;;39.50;29.50;;;;;-143.93;100.00;62969.28;4993185;28;8839;-67
2022/05/04 01:49:01;;;;;;;;;38.50;31.00;;;;;-143.93;100.00;62969.28;4997862;28;8825;-66
2022/05/04 01:51:26;;;;;;;;;36.50;28.00;;;;;-143.93;100.00;62969.28;5004883;28;8914;-66
2022/05/04 01:53:51;;;;;;;;;38.00;29.00;;;;;-143.93;100.00;62969.28;4988913;28;21221;-66
2022/05/04 01:56:16;;;;;;;;;37.75;30.75;;;;;-143.93;100.00;62969.28;5003451;28;18780;-66
2022/05/04 01:58:42;;;;;;;;;38.25;30.75;;;;;-143.93;100.00;62969.28;4991502;28;15674;-67
2022/05/04 02:01:07;;;;;;;;;39.75;29.00;;;;;-143.93;100.00;62969.28;4997346;28;8827;-66
2022/05/04 02:03:33;;;;;;;;;33.50;26.00;;;;;-143.93;100.00;62969.28;5000158;28;8858;-66
2022/05/04 02:05:59;;;;;;;;;38.75;27.50;;;;;-143.93;100.00;62969.28;5008566;28;8816;-67
2022/05/04 02:08:24;;;;;;;;;36.75;32.25;;;;;-143.93;100.00;62969.28;4994449;28;8812;-67
2022/05/04 02:10:50;;;;;;;;;36.75;29.50;;;;;-143.93;100.00;62969.28;5015744;28;8820;-67
2022/05/04 02:13:15;;;;;;;;;37.25;28.00;;;;;-143.93;100.00;62969.28;4996456;28;8828;-66
2022/05/04 02:15:41;;;;;;;;;39.00;31.50;;;;;-143.93;100.00;62969.28;4995881;28;8836;-66
2022/05/04 02:18:06;;;;;;;;;34.00;29.75;;;;;-143.93;100.00;62969.28;4991429;28;8892;-66
2022/05/04 02:20:32;;;;;;;;;34.00;31.00;;;;;-143.93;100.00;62969.28;4997755;28;8832;-66
2022/05/04 02:22:57;;;;;;;;;38.25;31.50;;;;;-143.93;100.00;62969.28;4991963;28;8839;-67
2022/05/04 02:25:22;;;;;;;;;36.25;31.25;;;;;-143.93;100.00;62969.28;4992438;28;8950;-66
2022/05/04 02:27:48;;;;;;;;;45.75;34.00;;;;;-143.93;100.00;62969.28;4994096;28;8918;-66
2022/05/04 02:30:13;;;;;;;;;32.25;29.00;;;;;-143.93;100.00;62969.28;4991981;28;10958;-66
2022/05/04 02:32:39;;;;;;;;;38.00;31.25;;;;;-143.93;100.00;62969.28;5002537;28;8883;-66
2022/05/04 02:37:55;;;;;;;;;39.25;33.50;;;;;-143.93;100.00;62969.28;4998649;28;9576;-66
2022/05/04 02:40:21;;;;;;;;;33.00;25.00;;;;;-143.93;100.00;62969.28;4996116;28;9544;-66
2022/05/04 02:42:47;;;;;;;;;36.25;30.75;;;;;-143.93;100.00;62969.28;5020514;28;8832;-66
2022/05/04 02:45:14;;;;;;;;;47.50;32.25;;;;;-143.93;100.00;62969.28;5002951;28;8879;-66
2022/05/04 02:47:40;;;;;;;;;44.50;33.25;;;;;-143.93;100.00;62969.28;5018554;28;9591;-66
2022/05/04 02:50:06;;;;;;;;;47.00;34.75;;;;;-143.93;100.00;62969.28;5020013;28;8883;-67
2022/05/04 02:52:32;;;;;;;;;46.50;34.75;;;;;-143.93;100.00;62969.28;4999529;28;8831;-66
2022/05/04 02:54:57;;;;;;;;;38.00;30.25;;;;;-143.93;100.00;62969.28;5001082;28;8829;-66
2022/05/04 02:57:22;;;;;;;;;41.50;30.75;;;;;-143.93;100.00;62969.28;5003667;27;8841;-67
2022/05/04 02:59:48;;;;;;;;;44.50;32.75;;;;;-143.93;100.00;62969.28;4990507;28;8866;-66
2022/05/04 03:02:28;;;;;;;;;38.00;32.25;;;;;-143.93;100.00;62969.28;4996930;28;8838;-66
2022/05/04 03:04:59;;;;;;;;;31.00;29.50;;;;;-143.93;100.00;62969.28;5001528;28;8816;-66
2022/05/04 03:07:26;;;;;;;;;37.00;31.25;;;;;-143.93;100.00;62969.28;4998352;28;8790;-66
2022/05/04 03:09:53;;;;;;;;;36.25;31.50;;;;;-143.93;100.00;62969.28;4990096;28;8788;-66
2022/05/04 03:12:18;;;;;;;;;37.25;33.75;;;;;-143.93;100.00;62969.28;5006327;28;8830;-66
2022/05/04 03:14:43;;;;;;;;;38.50;31.75;;;;;-143.93;100.00;62969.28;5004339;28;8815;-66
2022/05/04 03:17:09;;;;;;;;;41.25;31.25;;;;;-143.93;100.00;62969.28;4998937;28;8805;-66
2022/05/04 03:19:35;;;;;;;;;35.25;31.25;;;;;-143.93;100.00;62969.28;4993327;28;8804;-65
2022/05/04 03:22:00;;;;;;;;;40.25;26.75;;;;;-143.93;100.00;62969.28;4994798;28;8813;-66
2022/05/04 03:24:26;;;;;;;;;38.75;30.00;;;;;-143.93;100.00;62969.28;4993343;28;9021;-66
2022/05/04 03:26:51;;;;;;;;;41.50;33.00;;;;;-143.93;100.00;62969.28;4989489;28;8831;-66
2022/05/04 03:29:17;;;;;;;;;37.50;31.75;;;;;-143.93;100.00;62969.28;4998056;28;8893;-66
2022/05/04 03:31:42;;;;;;;;;37.00;31.25;;;;;-143.93;100.00;62969.28;5003341;28;8849;-66
2022/05/04 03:34:07;;;;;;;;;45.25;33.00;;;;;-143.93;100.00;62969.28;4997449;28;8844;-66
2022/05/04 03:36:35;;;;;;;;;37.50;30.75;;;;;-143.93;100.00;62969.28;4998398;28;8936;-66
2022/05/04 03:39:01;;;;;;;;;41.25;31.50;;;;;-143.93;100.00;62969.28;4987345;28;8885;-66
2022/05/04 03:41:27;;;;;;;;;37.25;29.50;;;;;-143.93;100.00;62969.28;4999138;28;8801;-66
2022/05/04 03:43:52;;;;;;;;;45.50;34.50;;;;;-143.93;100.00;62969.28;4992114;28;10142;-66
2022/05/04 03:46:26;;;;;;;;;45.50;30.50;;;;;-143.93;100.00;62969.28;4994881;28;8792;-66
2022/05/04 03:48:54;;;;;;;;;45.25;35.00;;;;;-143.93;100.00;62969.28;5005765;28;8821;-66
2022/05/04 03:51:20;;;;;;;;;43.00;32.00;;;;;-143.93;100.00;62969.28;5012981;28;8817;-67
2022/05/04 03:53:52;;;;;;;;;37.50;32.00;;;;;-143.93;100.00;62969.28;4989857;28;9674;-66
2022/05/04 03:56:19;;;;;;;;;42.25;31.25;;;;;-143.93;100.00;62969.28;5025425;28;8885;-66
2022/05/04 03:58:44;;;;;;;;;42.50;33.25;;;;;-143.93;100.00;62969.28;4994328;28;8828;-66
2022/05/04 04:01:11;;;;;;;;;38.25;31.00;;;;;-143.93;100.00;62969.28;4997187;28;8912;-66
2022/05/04 04:03:37;;;;;;;;;37.00;28.50;;;;;-143.93;100.00;62969.28;4993083;28;8833;-66
2022/05/04 04:06:02;;;;;;;;;40.50;31.00;;;;;-143.93;100.00;62969.28;4996150;28;8797;-66
2022/05/04 04:08:28;;;;;;;;;34.75;31.25;;;;;-143.93;100.00;62969.28;5002812;28;8817;-66
2022/05/04 04:10:54;;;;;;;;;38.00;30.75;;;;;-143.93;100.00;62969.28;4988136;28;8827;-66
2022/05/04 04:13:19;;;;;;;;;34.25;26.50;;;;;-143.93;100.00;62969.28;4993707;28;8906;-66
2022/05/04 04:15:45;;;;;;;;;28.25;27.50;;;;;-143.93;100.00;62969.28;4996553;28;8812;-66
2022/05/04 04:18:11;;;;;;;;;39.75;33.75;;;;;-143.93;100.00;62969.28;4991566;28;8796;-66
2022/05/04 04:23:21;;;;;;;;;35.25;31.50;;;;;-143.93;100.00;62969.28;4986396;28;8804;-66
2022/05/04 04:25:46;;;;;;;;;41.25;31.50;;;;;-143.93;100.00;62969.28;5014740;28;8925;-66
2022/05/04 04:28:12;;;;;;;;;43.25;32.25;;;;;-143.93;100.00;62969.28;5012093;28;8921;-66
2022/05/04 04:30:38;;;;;;;;;42.00;31.50;;;;;-143.93;100.00;62969.28;5009459;28;8815;-67
2022/05/04 04:33:07;;;;;;;;;40.50;31.00;;;;;-143.93;100.00;62969.28;4996870;28;8951;-66
2022/05/04 04:35:33;;;;;;;;;39.75;29.25;;;;;-143.93;100.00;62969.28;5000061;28;8882;-67
2022/05/04 04:37:59;;;;;;;;;39.75;31.00;;;;;-143.93;100.00;62969.28;4999099;28;8802;-66
2022/05/04 04:40:25;;;;;;;;;44.00;32.75;;;;;-143.93;100.00;62969.28;4988837;28;9745;-66
2022/05/04 04:42:50;;;;;;;;;41.00;32.00;;;;;-143.93;100.00;62969.28;4998052;28;8821;-66
2022/05/04 04:45:17;;;;;;;;;46.50;33.00;;;;;-143.93;100.00;62969.28;4989838;28;9648;-66
2022/05/04 04:47:44;;;;;;;;;37.75;30.50;;;;;-143.93;100.00;62969.28;5003224;28;8821;-66
2022/05/04 04:50:09;;;;;;;;;40.25;32.00;;;;;-143.93;100.00;62969.28;4996336;28;8823;-66
2022/05/04 04:52:35;;;;;;;;;36.25;29.50;;;;;-143.93;100.00;62969.28;4998865;28;8833;-66
2022/05/04 04:55:00;;;;;;;;;37.00;32.75;;;;;-143.93;100.00;62969.28;4996140;28;14218;-66
2022/05/04 04:57:25;;;;;;;;;34.33;31.00;;;;;-143.93;100.00;62969.28;4998358;28;20333;-66
2022/05/04 04:59:51;;;;;;;;;38.00;30.33;;;;;-143.93;100.00;62969.28;5049487;28;14359;-66
2022/05/04 05:02:16;;;;;;;;;36.25;28.75;;;;;-143.93;100.00;62969.28;4996975;28;11278;-66
2022/05/04 05:04:41;;;;;;;;;43.25;32.50;;;;;-143.93;100.00;62969.28;5003880;27;8829;-66
2022/05/04 05:07:07;;;;;;;;;43.00;30.50;;;;;-143.93;100.00;62969.28;5001126;28;8969;-66
2022/05/04 05:09:32;;;;;;;;;36.25;30.25;;;;;-143.93;100.00;62969.28;5000296;28;8843;-66
2022/05/04 05:11:57;;;;;;;;;32.00;28.00;;;;;-143.93;100.00;62969.28;5000802;28;16861;-66
2022/05/04 05:17:06;;;;;;;;;45.00;32.25;;;;;-143.93;100.00;62969.28;4993170;28;9215;-66
2022/05/04 05:19:32;;;;;;;;;49.00;34.00;;;;;-143.93;100.00;62969.28;5002522;28;14989;-66
2022/05/04 05:21:57;;;;;;;;;45.75;34.00;;;;;-143.93;100.00;62969.28;4993484;28;8996;-66
2022/05/04 05:24:22;;;;;;;;;40.75;29.75;;;;;-143.93;100.00;62969.28;4993524;28;11498;-66
2022/05/04 05:26:48;;;;;;;;;36.25;29.00;;;;;-143.93;100.00;62969.28;4998627;28;9535;-66
2022/05/04 05:29:13;;;;;;;;;41.75;31.75;;;;;-143.93;100.00;62969.28;4998093;28;8832;-66
2022/05/04 05:31:38;;;;;;;;;37.50;28.75;;;;;-143.93;100.00;62969.28;4996071;28;12191;-66
2022/05/04 05:34:04;;;;;;;;;39.50;28.50;;;;;-143.93;100.00;62969.28;4994345;28;21390;-66
2022/05/04 05:36:29;;;;;;;;;36.25;28.00;;;;;-143.93;100.00;62969.28;4993512;28;8852;-67
2022/05/04 05:38:54;;;;;;;;;40.00;30.50;;;;;-143.93;100.00;62969.28;4992596;28;8863;-67
2022/05/04 05:41:23;;;;;;;;;44.75;31.25;;;;;-143.93;100.00;62969.28;4999777;28;8890;-67
2022/05/04 05:43:48;;;;;;;;;43.25;32.25;;;;;-143.93;100.00;62969.28;4994898;28;8930;-66
2022/05/04 05:46:14;;;;;;;;;40.00;26.75;;;;;-143.93;100.00;62969.28;4998156;28;8821;-67
2022/05/04 05:48:39;;;;;;;;;43.50;34.75;;;;;-143.93;100.00;62969.28;4994422;28;9626;-67
2022/05/04 05:51:05;;;;;;;;;34.25;30.00;;;;;-143.93;100.00;62969.28;4993289;28;9572;-67
2022/05/04 05:53:31;;;;;;;;;35.50;27.50;;;;;-143.93;100.00;62969.28;4996010;28;8842;-67
2022/05/04 05:55:57;;;;;;;;;41.50;32.00;;;;;-143.93;100.00;62969.28;5002988;28;8801;-67
2022/05/04 05:58:22;;;;;;;;;36.00;29.50;;;;;-143.93;100.00;62969.28;5002378;28;8948;-67
2022/05/04 06:00:47;;;;;;;;;39.75;32.00;;;;;-143.93;100.00;62969.28;5024779;27;8957;-67
2022/05/04 06:03:14;;;;;;;;;41.00;30.75;;;;;-143.93;100.00;62969.28;4997937;28;8833;-66
2022/05/04 06:05:39;;;;;;;;;47.25;32.75;;;;;-143.93;100.00;62969.28;5013634;28;9923;-67
2022/05/04 06:08:05;;;;;;;;;37.25;29.00;;;;;-143.93;100.00;62969.28;5003786;28;8797;-67
2022/05/04 06:10:30;;;;;;;;;49.50;34.75;;;;;-143.93;100.00;62969.28;4999631;28;8910;-67
2022/05/04 06:12:55;;;;;;;;;40.00;33.00;;;;;-143.93;100.00;62969.28;5000947;28;9465;-67
2022/05/04 06:15:21;;;;;;;;;36.00;30.25;;;;;-143.93;100.00;62969.28;4998434;28;8796;-67
2022/05/04 06:17:47;;;;;;;;;40.50;32.25;;;;;-143.93;100.00;62969.28;5007720;28;10430;-67
2022/05/04 06:20:12;;;;;;;;;37.75;31.25;;;;;-143.93;100.00;62969.28;5000617;28;8828;-67
2022/05/04 06:22:38;;;;;;;;;44.25;34.50;;;;;-143.93;100.00;62969.28;5000686;28;8837;-67
2022/05/04 06:25:04;;;;;;;;;32.25;30.00;;;;;-143.93;100.00;62969.28;4998248;28;10227;-67
2022/05/04 06:27:30;;;;;;;;;36.75;29.50;;;;;-143.93;100.00;62969.28;5001623;28;8835;-67
2022/05/04 06:35:24;;;;;;;;;41.75;33.25;;;;;-143.93;100.00;62969.28;4999847;28;8780;-67
2022/05/04 06:37:49;;;;;;;;;40.00;28.50;;;;;-143.93;100.00;62969.28;4993500;28;8815;-67
2022/05/04 06:40:14;;;;;;;;;39.33;31.33;;;;;-143.93;100.00;62969.28;5003235;28;16823;-67
2022/05/04 06:42:40;;;;;;;;;41.00;30.00;;;;;-143.93;100.00;62969.28;4997169;28;8927;-66
2022/05/04 06:45:06;;;;;;;;;37.33;31.67;;;;;-143.93;100.00;62969.28;4990656;28;24245;-67
2022/05/04 06:47:31;;;;;;;;;42.00;32.25;;;;;-143.93;100.00;62969.28;5003839;28;9104;-68
2022/05/04 06:49:56;;;;;;;;;35.50;30.75;;;;;-143.93;100.00;62969.28;4990764;28;8826;-68
2022/05/04 06:52:24;;;;;;;;;39.00;33.00;;;;;-143.93;100.00;62969.28;4999525;28;17925;-68
2022/05/04 06:54:50;;;;;;;;;41.75;32.75;;;;;-143.93;100.00;62969.28;4999106;28;8842;-67
2022/05/04 06:57:15;;;;;;;;;37.75;28.75;;;;;-143.93;100.00;62969.28;4992509;28;8797;-67
2022/05/04 06:59:40;;;;;;;;;36.75;28.00;;;;;-143.93;100.00;62969.28;4997467;28;8854;-66
2022/05/04 07:02:06;;;;;;;;;35.00;26.25;;;;;-143.93;100.00;62969.28;5024029;28;8835;-66
2022/05/04 07:04:32;;;;;;;;;38.50;31.25;;;;;-143.93;100.00;62969.28;4991614;28;8820;-67
2022/05/04 07:06:58;;;;;;;;;39.75;30.75;;;;;-143.93;100.00;62969.28;4996304;28;8935;-66
2022/05/04 07:09:23;;;;;;;;;38.25;34.25;;;;;-143.93;100.00;62969.28;4996325;28;8836;-67
2022/05/04 07:11:49;;;;;;;;;40.25;31.75;;;;;-143.93;100.00;62969.28;5009591;28;8831;-66
2022/05/04 07:14:14;;;;;;;;;41.50;33.00;;;;;-143.93;100.00;62969.28;5001432;28;8849;-66
2022/05/04 07:16:40;;;;;;;;;38.50;32.25;;;;;-143.93;100.00;62969.28;5005419;28;8829;-67
2022/05/04 07:19:05;;;;;;;;;35.00;29.50;;;;;-143.93;100.00;62969.28;5000564;28;8934;-66
2022/05/04 07:21:31;;;;;;;;;41.25;33.75;;;;;-143.93;100.00;62969.28;5004631;28;16372;-66
2022/05/04 07:23:57;;;;;;;;;48.25;34.50;;;;;-143.93;100.00;62969.28;4989053;28;8833;-67
2022/05/04 07:26:22;;;;;;;;;46.25;34.00;;;;;-143.93;100.00;62969.28;4991501;28;9315;-66
2022/05/04 07:28:47;;;;;;;;;47.50;34.75;;;;;-143.93;100.00;62969.28;4991739;28;8812;-66
2022/05/04 07:31:13;;;;;;;;;36.75;31.50;;;;;-143.93;100.00;62969.28;4995477;28;8801;-66
2022/05/04 07:33:39;;;;;;;;;34.00;32.00;;;;;-143.93;100.00;62969.28;4993017;28;8877;-66
2022/05/04 07:36:04;;;;;;;;;42.25;36.00;;;;;-143.93;100.00;62969.28;4998103;28;8921;-67
2022/05/04 07:38:30;;;;;;;;;44.25;33.25;;;;;-143.93;100.00;62969.28;5006004;28;8802;-66
2022/05/04 07:43:39;;;;;;;;;45.50;33.50;;;;;-143.93;100.00;62969.28;5003839;28;9596;-67
2022/05/04 07:46:04;;;;;;;;;50.00;34.25;;;;;-143.93;100.00;62969.28;4997947;28;8874;-66
2022/05/04 07:48:29;;;;;;;;;49.00;35.00;;;;;-143.93;100.00;62969.28;4996411;28;8817;-66
2022/05/04 07:50:55;;;;;;;;;34.25;29.50;;;;;-143.93;100.00;62969.28;5051900;28;8829;-67
2022/05/04 07:53:20;;;;;;;;;45.75;35.50;;;;;-143.93;100.00;62969.28;4996174;28;8905;-67
2022/05/04 07:55:47;;;;;;;;;46.25;36.00;;;;;-143.93;100.00;62969.28;5000915;28;8817;-66
2022/05/04 07:58:13;;;;;;;;;47.25;34.25;;;;;-143.93;100.00;62969.28;4995768;28;8909;-66
2022/05/04 08:06:11;;;;;;;;;46.50;33.75;;;;;-143.93;100.00;62969.28;5061745;28;8830;-66
2022/05/04 08:08:37;;;;;;;;;45.00;36.00;;;;;-143.93;100.00;62969.28;5050803;28;8803;-67
2022/05/04 08:11:03;;;;;;;;;112.50;96.00;;;;;-143.93;100.00;62969.28;5062629;28;8890;-66
2022/05/04 08:13:29;;;;;;;;;55.50;39.25;;;;;-143.93;100.00;62969.28;5050032;28;8813;-66
2022/05/04 08:15:54;;;;;;;;;44.25;36.00;;;;;-143.93;100.00;62969.28;5051369;28;9641;-67
2022/05/04 08:18:20;;;;;;;;;49.75;37.25;;;;;-143.93;100.00;62969.28;5047447;28;9652;-67
2022/05/04 08:20:46;;;;;;;;;46.25;35.25;;;;;-143.93;100.00;62969.28;5057955;28;9532;-66
2022/05/04 08:23:12;;;;;;;;;52.75;39.50;;;;;-143.93;100.00;62969.28;5059702;28;8821;-67
2022/05/04 08:25:38;;;;;;;;;47.25;38.75;;;;;-143.93;100.00;62969.28;5067338;28;8907;-67
2022/05/04 08:28:04;;;;;;;;;41.25;35.25;;;;;-143.93;100.00;62969.28;5055509;28;8805;-67
2022/05/04 08:30:29;;;;;;;;;51.00;37.00;;;;;-143.93;100.00;62969.28;5051646;28;9012;-67
2022/05/04 08:32:54;;;;;;;;;49.75;38.75;;;;;-143.93;100.00;62969.28;5061928;28;8845;-67
2022/05/04 08:35:20;;;;;;;;;42.75;35.50;;;;;-143.93;100.00;62969.28;5052517;28;8803;-67
2022/05/04 08:37:46;;;;;;;;;49.00;36.00;;;;;-143.93;100.00;62969.28;5054838;28;8858;-67
2022/05/04 08:40:12;;;;;;;;;43.25;35.75;;;;;-143.93;100.00;62969.28;5056000;28;8810;-67
2022/05/04 08:42:43;;;;;;;;;53.75;40.50;;;;;-143.93;100.00;62969.28;5042906;28;8836;-67
2022/05/04 08:45:14;;;;;;;;;51.00;39.50;;;;;-143.93;100.00;62969.28;4994503;28;9595;-67
2022/05/04 08:47:41;;;;;;;;;52.75;38.25;;;;;-143.93;100.00;62969.28;5002033;28;8880;-67
2022/05/04 08:50:17;;;;;;;;;47.75;37.50;;;;;-143.93;100.00;62969.28;5027711;28;8870;-67
2022/05/04 08:52:53;;;;;;;;;53.00;40.50;;;;;-143.93;100.00;62969.28;5024209;28;8886;-67
2022/05/04 08:55:20;;;;;;;;;48.50;36.25;;;;;-143.93;100.00;62969.28;5022221;27;8805;-67
2022/05/04 08:57:46;;;;;;;;;49.25;38.00;;;;;-143.93;100.00;62969.28;4996573;28;8946;-67
2022/05/04 09:00:12;;;;;;;;;53.00;40.00;;;;;-143.93;100.00;62969.28;4993885;28;9583;-66
2022/05/04 09:02:38;;;;;;;;;76.50;61.50;;;;;-143.93;100.00;62969.28;4995656;28;8839;-67
2022/05/04 09:05:17;;;;;;;;;45.75;35.00;;;;;-143.93;100.00;62969.28;5000795;28;8778;-67
2022/05/04 09:07:43;;;;;;;;;49.00;38.50;;;;;-143.93;100.00;62969.28;4999994;28;8812;-67
2022/05/04 09:10:22;;;;;;;;;45.25;34.25;;;;;-143.93;100.00;62969.28;4996936;28;8803;-67
2022/05/04 09:12:49;;;;;;;;;46.00;36.50;;;;;-143.93;100.00;62969.28;4997235;28;9644;-67
2022/05/04 09:15:22;;;;;;;;;44.25;35.25;;;;;-143.93;100.00;62969.28;5011355;28;8801;-66
2022/05/04 09:17:58;;;;;;;;;46.25;34.25;;;;;-143.93;100.00;62969.28;4993468;28;8812;-67
2022/05/04 09:23:29;;;;;;;;;42.25;34.00;;;;;-143.93;100.00;62969.28;4996894;28;8817;-66
2022/05/04 09:25:59;;;;;;;;;45.00;34.50;;;;;-143.93;100.00;62969.28;5007864;28;8827;-67
2022/05/04 09:28:28;;;;;;;;;45.25;35.00;;;;;-143.93;100.00;62969.28;4988149;28;8962;-66
2022/05/04 09:30:59;;;;;;;;;47.50;34.25;;;;;-143.93;100.00;62969.28;4996763;28;8821;-66
2022/05/04 09:33:27;;;;;;;;;38.00;32.25;;;;;-143.93;100.00;62969.28;5002047;28;9498;-67
2022/05/04 09:35:53;;;;;;;;;47.25;36.00;;;;;-143.93;100.00;62969.28;4996337;28;8808;-67
2022/05/04 09:46:49;;;;;;;;;37.00;32.50;;;;;-143.93;100.00;62969.28;4984331;28;8805;-66
2022/05/04 09:49:18;;;;;;;;;41.50;33.50;;;;;-143.93;100.00;62969.28;4983134;28;8837;-67
2022/05/04 09:51:49;;;;;;;;;33.75;28.50;;;;;-143.93;100.00;62969.28;4990545;28;8827;-67
2022/05/04 09:54:26;;;;;;;;;33.25;30.50;;;;;-143.93;100.00;62969.28;4994753;28;8821;-67
2022/05/04 09:56:58;;;;;;;;;31.25;28.25;;;;;-143.93;100.00;62969.28;4988683;28;8831;-67
2022/05/04 09:59:29;;;;;;;;;34.75;29.25;;;;;-143.93;100.00;62969.28;4998277;28;8798;-67
2022/05/04 10:01:55;;;;;;;;;28.25;21.75;;;;;-143.93;100.00;62969.28;4994567;28;8795;-67
2022/05/04 10:04:23;;;;;;;;;27.50;22.00;;;;;-143.93;100.00;62969.28;4981524;28;9647;-67
2022/05/04 10:06:50;;;;;;;;;34.25;26.75;;;;;-143.93;100.00;62969.28;4982052;28;8843;-67
2022/05/04 10:09:16;;;;;;;;;30.00;23.00;;;;;-143.93;100.00;62969.28;4990758;28;8885;-66
2022/05/04 10:11:42;;;;;;;;;27.00;21.50;;;;;-143.93;100.00;62969.28;4999688;28;8807;-66
2022/05/04 10:14:10;;;;;;;;;24.00;20.50;;;;;-143.93;100.00;62969.28;5000328;28;8867;-67
2022/05/04 10:17:04;;;;;;;;;26.75;22.75;;;;;-143.93;100.00;62969.28;4991776;28;9770;-67
2022/05/04 10:19:54;;;;;;;;;26.00;19.25;;;;;-143.93;100.00;62969.28;4982929;28;8860;-67
2022/05/04 10:22:41;;;;;;;;;24.00;19.50;;;;;-143.93;100.00;62969.28;4990922;28;8839;-67
2022/05/04 10:25:07;;;;;;;;;24.50;21.25;;;;;-143.93;100.00;62969.28;4998908;28;8821;-67
2022/05/04 10:27:39;;;;;;;;;26.75;23.75;;;;;-143.93;100.00;62969.28;4994775;28;8812;-67
2022/05/04 10:32:51;;;;;;;;;27.75;24.25;;;;;-143.93;100.00;62969.28;4999233;28;8805;-67
2022/05/04 10:35:21;;;;;;;;;26.75;25.25;;;;;-143.93;100.00;62969.28;4992798;28;8832;-68
2022/05/04 10:37:57;;;;;;;;;28.50;25.25;;;;;-143.93;100.00;62969.28;5009395;28;9171;-67
2022/05/04 10:40:39;;;;;;;;;25.75;22.25;;;;;-143.93;100.00;62969.28;4996986;28;8901;-67
2022/05/04 10:43:09;;;;;;;;;28.75;23.25;;;;;-143.93;100.00;62969.28;4996055;28;8825;-66
2022/05/04 10:45:37;;;;;;;;;24.25;22.75;;;;;-143.93;100.00;62969.28;4989255;28;8810;-66
2022/05/04 10:48:20;;;;;;;;;22.50;19.75;;;;;-143.93;100.00;62969.28;4990347;28;8822;-66
2022/05/04 10:50:49;;;;;;;;;25.00;22.75;;;;;-143.93;100.00;62969.28;4991965;28;8800;-65
2022/05/04 10:53:30;;;;;;;;;24.75;22.25;;;;;-143.93;100.00;62969.28;5007375;28;8891;-66
2022/05/04 10:56:01;;;;;;;;;30.75;22.75;;;;;-143.93;100.00;62969.28;4989722;28;8811;-66
2022/05/04 10:58:43;;;;;;;;;26.50;21.50;;;;;-143.93;100.00;62969.28;5000623;28;8838;-67
2022/05/04 11:01:15;;;;;;;;;21.00;18.50;;;;;-143.93;100.00;62969.28;4993599;28;8804;-66
2022/05/04 11:04:04;;;;;;;;;24.50;18.75;;;;;-143.93;100.00;62969.28;4994544;28;8942;-66
2022/05/04 11:06:32;;;;;;;;;20.25;20.25;;;;;-143.93;100.00;62969.28;4992594;28;8932;-66
2022/05/04 11:09:06;;;;;;;;;23.50;21.00;;;;;-143.93;100.00;62969.28;5022122;28;8809;-66
2022/05/04 11:11:32;;;;;;;;;22.75;19.75;;;;;-143.93;100.00;62969.28;5018844;28;8897;-66
2022/05/04 11:13:58;;;;;;;;;27.25;21.25;;;;;-143.93;100.00;62969.28;5018233;28;8850;-66
2022/05/04 11:16:25;;;;;;;;;23.00;19.75;;;;;-143.93;100.00;62969.28;4993979;28;8856;-66
2022/05/04 11:18:50;;;;;;;;;28.75;25.50;;;;;-143.93;100.00;62969.28;4968856;28;8817;-66
2022/05/04 11:21:18;;;;;;;;;27.00;22.00;;;;;-143.93;100.00;62969.28;4971786;28;8848;-67
2022/05/04 11:23:51;;;;;;;;;23.75;20.50;;;;;-143.93;100.00;62969.28;4976323;28;8816;-67
2022/05/04 11:26:22;;;;;;;;;21.75;17.00;;;;;-143.93;100.00;62969.28;4983075;28;8914;-66
2022/05/04 11:28:49;;;;;;;;;24.75;17.75;;;;;-143.93;100.00;62969.28;5052340;28;8803;-67
2022/05/04 11:31:15;;;;;;;;;4.75;3.00;;;;;-143.93;100.00;62969.28;5005668;27;8900;-67
2022/05/04 11:33:42;;;;;;;;;29.25;21.50;;;;;-143.93;100.00;62969.28;4994171;28;8837;-67
2022/05/04 11:36:07;;;;;;;;;25.00;20.50;;;;;-143.93;100.00;62969.28;4998423;28;8947;-67
2022/05/04 11:38:33;;;;;;;;;14.75;12.50;;;;;-143.93;100.00;62969.28;4999667;28;8793;-67
2022/05/04 11:41:01;;;;;;;;;14.75;11.50;;;;;-143.93;100.00;62969.28;4991439;28;8816;-67